Time;durP1;ratioP1;P1;durP2;ratioP2;P2;SDS_P1;SDS_P2;PMS_P1;PMS_P2;Temp;Humidity;BMP_temperature;BMP_pressure;BME280_temperature;BME280_humidity;BME280_pressure;Samples;Min_cycle;Max_cycle;Signal;HPM_P1;HPM_P2
2022/11/01 00:02:01;;;;;;;219.23;94.80;;;11.20;99.90;;;;;;5129116;27;20768;-53
2022/11/01 00:04:29;;;;;;;246.40;97.67;;;11.30;99.90;;;;;;5128971;27;20271;-51
2022/11/01 00:06:57;;;;;;;251.90;113.70;;;11.20;99.90;;;;;;5129826;27;20238;-52
2022/11/01 00:09:26;;;;;;;410.57;152.77;;;11.20;99.90;;;;;;5128383;27;20719;-52
2022/11/01 00:11:55;;;;;;;557.93;288.03;;;11.20;99.90;;;;;;5129612;27;20209;-52
2022/11/01 00:14:23;;;;;;;143.47;80.90;;;11.20;99.90;;;;;;5129835;27;20725;-50
2022/11/01 00:16:51;;;;;;;219.57;88.77;;;11.20;99.90;;;;;;5129684;27;20203;-51
2022/11/01 00:19:19;;;;;;;269.83;166.70;;;11.20;99.90;;;;;;5127984;27;20262;-52
2022/11/01 00:21:47;;;;;;;372.17;141.20;;;11.30;99.90;;;;;;5128205;27;20297;-52
2022/11/01 00:24:16;;;;;;;93.63;33.73;;;11.30;99.90;;;;;;5130965;27;20638;-52
2022/11/01 00:26:44;;;;;;;346.20;141.80;;;11.30;99.90;;;;;;5150370;27;20258;-51
2022/11/01 00:29:14;;;;;;;307.00;122.93;;;11.30;99.90;;;;;;5137621;27;20266;-52
2022/11/01 00:31:42;;;;;;;496.33;249.33;;;11.30;99.90;;;;;;5150571;27;20206;-51
2022/11/01 00:34:10;;;;;;;152.70;61.90;;;11.30;99.90;;;;;;5148249;27;20232;-52
2022/11/01 00:36:38;;;;;;;116.97;59.17;;;11.30;99.90;;;;;;5150456;27;20246;-52
2022/11/01 00:39:06;;;;;;;280.87;121.00;;;11.40;99.90;;;;;;5149627;27;20250;-52
2022/11/01 00:41:34;;;;;;;188.97;84.63;;;11.40;99.90;;;;;;5150230;27;20705;-52
2022/11/01 00:44:03;;;;;;;494.03;242.90;;;11.40;99.90;;;;;;5149899;27;20230;-51
2022/11/01 00:46:33;;;;;;;25.90;21.13;;;11.40;99.90;;;;;;5133652;27;20246;-52
2022/11/01 00:49:01;;;;;;;240.50;123.97;;;11.40;99.90;;;;;;5138489;27;20258;-52
2022/11/01 00:51:29;;;;;;;90.37;39.77;;;11.40;99.90;;;;;;5149991;27;20240;-52
2022/11/01 00:53:57;;;;;;;238.73;98.73;;;11.50;99.90;;;;;;5144070;27;20264;-52
2022/11/01 00:56:25;;;;;;;172.30;86.97;;;11.50;99.90;;;;;;5150332;27;20286;-52
2022/11/01 00:58:54;;;;;;;284.90;111.90;;;11.50;99.90;;;;;;5149072;27;20244;-50
2022/11/01 01:01:22;;;;;;;231.80;116.80;;;11.50;99.90;;;;;;5150297;27;20241;-50
2022/11/01 01:03:51;;;;;;;67.77;29.03;;;11.60;99.90;;;;;;5149121;27;20199;-51
2022/11/01 01:06:19;;;;;;;114.37;39.03;;;11.60;99.90;;;;;;5150342;27;20667;-52
2022/11/01 01:08:48;;;;;;;352.90;109.90;;;11.60;99.90;;;;;;5148733;27;20757;-51
2022/11/01 01:11:16;;;;;;;781.73;288.37;;;11.70;99.90;;;;;;5150314;27;20230;-51
2022/11/01 01:13:44;;;;;;;241.40;92.97;;;11.80;99.90;;;;;;5153430;27;20226;-51
2022/11/01 01:16:12;;;;;;;447.10;191.23;;;11.80;99.90;;;;;;5153537;27;20198;-50
2022/11/01 01:18:41;;;;;;;487.87;187.63;;;11.80;99.90;;;;;;5152241;27;20292;-50
2022/11/01 01:21:12;;;;;;;125.93;39.50;;;11.90;99.90;;;;;;5150904;27;20285;-51
2022/11/01 01:23:42;;;;;;;737.60;320.70;;;11.90;99.90;;;;;;5136418;27;20203;-50
2022/11/01 01:26:11;;;;;;;139.23;55.03;;;11.80;99.90;;;;;;5150655;27;20248;-51
2022/11/01 01:28:39;;;;;;;74.70;30.00;;;11.80;99.90;;;;;;5151576;27;20248;-51
2022/11/01 01:31:12;;;;;;;665.43;263.97;;;11.70;99.90;;;;;;5153552;27;20206;-51
2022/11/01 01:33:41;;;;;;;585.23;197.73;;;11.70;99.90;;;;;;5151393;27;20227;-52
2022/11/01 01:36:11;;;;;;;142.20;54.67;;;11.70;99.90;;;;;;5152956;27;20233;-51
2022/11/01 01:38:39;;;;;;;286.00;103.07;;;11.70;99.90;;;;;;5152660;27;20202;-51
2022/11/01 01:43:52;;;;;;;595.33;265.33;;;11.70;99.90;;;;;;5145040;27;20316;-51
2022/11/01 01:46:21;;;;;;;589.20;238.63;;;11.60;99.90;;;;;;5146542;27;20225;-51
2022/11/01 01:48:52;;;;;;;447.37;214.87;;;11.60;99.90;;;;;;5152825;27;20228;-52
2022/11/01 01:51:25;;;;;;;599.47;295.50;;;11.70;99.90;;;;;;5152413;27;20242;-51
2022/11/01 01:53:57;;;;;;;75.40;35.40;;;11.70;99.90;;;;;;5147318;27;20308;-50
2022/11/01 01:56:31;;;;;;;359.07;140.17;;;11.70;99.90;;;;;;5152523;27;20716;-52
2022/11/01 01:59:03;;;;;;;450.77;245.50;;;11.70;99.90;;;;;;5151985;27;20244;-50
2022/11/01 02:01:32;;;;;;;576.27;246.60;;;11.70;99.90;;;;;;5137311;27;20286;-52
2022/11/01 02:04:01;;;;;;;405.13;207.63;;;11.70;99.90;;;;;;5130539;27;20263;-51
2022/11/01 02:06:33;;;;;;;365.93;132.30;;;11.70;99.90;;;;;;5131980;27;20675;-51
2022/11/01 02:09:03;;;;;;;64.23;33.83;;;11.80;99.90;;;;;;5130845;27;20258;-52
2022/11/01 02:11:31;;;;;;;257.97;123.23;;;11.80;99.90;;;;;;5132185;27;20206;-50
2022/11/01 02:14:00;;;;;;;339.93;144.57;;;11.80;99.90;;;;;;5130894;27;20743;-50
2022/11/01 02:16:49;;;;;;;112.93;46.27;;;11.90;99.90;;;;;;5131101;27;20254;-50
2022/11/01 02:19:51;;;;;;;277.13;96.43;;;11.90;99.90;;;;;;5131132;27;20255;-51
2022/11/01 02:22:30;;;;;;;30.37;25.77;;;12.00;99.90;;;;;;5130422;27;20210;-51
2022/11/01 02:25:10;;;;;;;387.23;152.90;;;12.00;99.90;;;;;;5124372;27;20312;-51
2022/11/01 02:27:59;;;;;;;854.90;271.00;;;12.00;99.90;;;;;;5145483;27;20223;-50
2022/11/01 02:30:38;;;;;;;303.30;126.13;;;12.00;99.90;;;;;;5149147;27;20250;-51
2022/11/01 02:33:17;;;;;;;634.13;206.83;;;12.10;99.90;;;;;;5149078;27;20240;-52
2022/11/01 02:35:55;;;;;;;723.17;195.13;;;12.10;99.90;;;;;;5144302;27;20310;-51
2022/11/01 02:38:28;;;;;;;907.27;233.20;;;12.10;99.90;;;;;;5137098;27;20202;-52
2022/11/01 02:41:05;;;;;;;431.87;150.37;;;12.10;99.90;;;;;;5151708;27;20203;-51
2022/11/01 02:43:39;;;;;;;448.60;150.17;;;12.20;99.90;;;;;;5123649;27;20241;-52
2022/11/01 02:48:53;;;;;;;428.27;126.97;;;12.10;99.90;;;;;;5124956;27;20261;-52
2022/11/01 02:51:23;;;;;;;709.47;280.63;;;12.20;99.90;;;;;;5151368;27;20639;-51
2022/11/01 02:53:51;;;;;;;1044.53;464.10;;;12.10;99.90;;;;;;5151138;27;20237;-50
2022/11/01 02:56:21;;;;;;;449.90;153.40;;;12.10;99.90;;;;;;5150766;27;20282;-51
2022/11/01 02:58:52;;;;;;;566.00;200.83;;;12.10;99.90;;;;;;5117101;27;20223;-51
2022/11/01 03:01:24;;;;;;;303.90;106.47;;;12.10;99.90;;;;;;5143797;27;20240;-51
2022/11/01 03:03:56;;;;;;;1058.63;565.27;;;12.00;99.90;;;;;;5149550;27;20198;-51
2022/11/01 03:06:29;;;;;;;598.20;254.77;;;12.00;99.90;;;;;;5151802;27;20206;-51
2022/11/01 03:09:01;;;;;;;453.77;161.50;;;12.00;99.90;;;;;;5150801;27;20218;-52
2022/11/01 03:11:36;;;;;;;520.07;211.97;;;12.00;99.90;;;;;;5150655;27;20214;-52
2022/11/01 03:14:15;;;;;;;574.40;251.83;;;12.00;99.90;;;;;;5144843;27;20234;-53
2022/11/01 03:16:52;;;;;;;291.73;111.73;;;12.00;99.90;;;;;;5129799;27;20219;-52
2022/11/01 03:19:37;;;;;;;458.27;171.93;;;12.00;99.90;;;;;;5129409;27;20266;-52
2022/11/01 03:22:10;;;;;;;487.33;184.27;;;12.10;99.90;;;;;;5128881;27;20289;-52
2022/11/01 03:24:46;;;;;;;431.33;184.37;;;12.10;99.90;;;;;;5132355;27;20509;-51
2022/11/01 03:27:19;;;;;;;147.30;69.87;;;12.20;99.90;;;;;;5151123;27;20252;-51
2022/11/01 03:29:55;;;;;;;352.30;116.10;;;12.20;99.90;;;;;;5146363;27;20715;-51
2022/11/01 03:32:27;;;;;;;256.53;101.37;;;12.30;99.90;;;;;;5130942;27;20202;-51
2022/11/01 03:34:59;;;;;;;425.50;146.53;;;12.30;99.90;;;;;;5146884;27;20580;-52
2022/11/01 03:37:28;;;;;;;742.67;225.63;;;12.30;99.90;;;;;;5146819;27;20322;-51
2022/11/01 03:40:01;;;;;;;599.93;190.50;;;12.30;99.90;;;;;;5149918;27;20262;-51
2022/11/01 03:42:30;;;;;;;681.60;251.33;;;12.30;99.90;;;;;;5150976;27;20202;-51
2022/11/01 03:45:04;;;;;;;528.93;194.10;;;12.30;99.90;;;;;;5150444;27;20233;-50
2022/11/01 03:47:32;;;;;;;615.13;229.20;;;12.30;99.90;;;;;;5146000;27;20202;-52
2022/11/01 03:50:19;;;;;;;542.83;161.80;;;12.30;99.90;;;;;;5134774;27;20269;-50
2022/11/01 03:52:48;;;;;;;203.43;73.40;;;12.30;99.90;;;;;;5149826;27;20850;-51
2022/11/01 03:55:18;;;;;;;575.20;196.20;;;12.30;99.90;;;;;;5148419;27;20213;-51
2022/11/01 03:57:47;;;;;;;211.33;88.63;;;12.40;99.90;;;;;;5149283;27;20289;-50
2022/11/01 04:00:17;;;;;;;510.93;209.90;;;12.40;99.90;;;;;;5149401;27;20308;-51
2022/11/01 04:02:46;;;;;;;824.67;326.93;;;12.40;99.90;;;;;;5149892;27;20266;-51
2022/11/01 04:05:14;;;;;;;611.33;215.83;;;12.50;99.90;;;;;;5148468;27;20205;-51
2022/11/01 04:07:44;;;;;;;562.50;211.77;;;12.50;99.90;;;;;;5121736;27;20218;-50
2022/11/01 04:10:13;;;;;;;350.87;122.57;;;12.50;99.90;;;;;;5145688;27;20254;-51
2022/11/01 04:12:44;;;;;;;392.83;140.73;;;12.50;99.90;;;;;;5150119;27;20241;-51
2022/11/01 04:20:53;;;;;;;792.97;273.87;;;12.60;99.90;;;;;;5149365;27;20284;-51
2022/11/01 04:23:22;;;;;;;696.80;247.60;;;12.60;99.90;;;;;;5130298;27;20238;-52
2022/11/01 04:25:51;;;;;;;971.03;328.93;;;12.60;99.90;;;;;;5144089;27;20202;-52
2022/11/01 04:28:19;;;;;;;1029.50;310.67;;;12.60;99.90;;;;;;5148530;27;20301;-51
2022/11/01 04:30:47;;;;;;;456.67;114.67;;;12.60;99.90;;;;;;5136715;27;20796;-51
2022/11/01 04:33:15;;;;;;;843.73;288.10;;;12.60;99.90;;;;;;5144801;27;20203;-51
2022/11/01 04:35:43;;;;;;;1080.97;320.43;;;12.60;99.90;;;;;;5142625;27;20281;-50
2022/11/01 04:38:12;;;;;;;657.27;201.70;;;12.60;99.90;;;;;;5141574;27;20289;-51
2022/11/01 04:40:42;;;;;;;637.70;250.07;;;12.60;99.90;;;;;;5143333;27;20320;-51
2022/11/01 04:43:12;;;;;;;896.23;250.60;;;12.60;99.90;;;;;;5143091;27;20202;-52
2022/11/01 04:45:40;;;;;;;502.63;157.37;;;12.60;99.90;;;;;;5147013;27;20207;-51
2022/11/01 04:48:12;;;;;;;613.30;178.50;;;12.60;99.90;;;;;;5147081;27;20289;-51
2022/11/01 04:50:41;;;;;;;435.47;144.87;;;12.70;99.90;;;;;;5142952;27;20270;-52
2022/11/01 04:53:10;;;;;;;346.30;105.07;;;12.70;99.90;;;;;;5139239;27;20280;-51
2022/11/01 04:55:38;;;;;;;533.57;161.10;;;12.70;99.90;;;;;;5147510;27;20861;-50
2022/11/01 04:58:09;;;;;;;995.40;320.87;;;12.70;99.90;;;;;;5151418;27;20835;-51
2022/11/01 05:00:38;;;;;;;655.17;261.53;;;12.70;99.90;;;;;;5144743;27;20274;-51
2022/11/01 05:03:08;;;;;;;540.23;204.13;;;12.80;99.90;;;;;;5139570;27;20210;-52
2022/11/01 05:05:36;;;;;;;860.03;316.37;;;12.80;99.90;;;;;;5132220;27;20203;-51
2022/11/01 05:08:07;;;;;;;374.40;159.30;;;12.90;99.90;;;;;;5133080;27;20250;-53
2022/11/01 05:10:37;;;;;;;570.70;229.90;;;12.90;99.90;;;;;;5132639;27;20303;-52
2022/11/01 05:13:05;;;;;;;378.40;145.90;;;12.80;99.90;;;;;;5132240;27;20772;-51
2022/11/01 05:15:35;;;;;;;617.63;185.63;;;12.90;99.90;;;;;;5132987;27;20203;-52
2022/11/01 05:18:10;;;;;;;641.80;205.13;;;12.90;99.90;;;;;;5131945;27;20769;-51
2022/11/01 05:20:38;;;;;;;540.13;210.13;;;12.90;99.90;;;;;;5131662;27;20298;-50
2022/11/01 05:23:06;;;;;;;1088.40;372.83;;;12.90;99.90;;;;;;5131937;27;20888;-51
2022/11/01 05:25:35;;;;;;;667.13;231.30;;;13.00;99.90;;;;;;5135116;27;20874;-51
2022/11/01 05:28:07;;;;;;;757.73;273.03;;;12.90;99.90;;;;;;5150000;27;20766;-52
2022/11/01 05:30:37;;;;;;;441.10;157.43;;;12.90;99.90;;;;;;5152143;27;20309;-51
2022/11/01 05:33:06;;;;;;;318.53;119.00;;;13.00;99.90;;;;;;5152284;27;20701;-52
2022/11/01 05:35:36;;;;;;;470.20;157.83;;;13.00;99.90;;;;;;5152677;27;20208;-51
2022/11/01 05:38:04;;;;;;;972.57;306.10;;;13.00;99.90;;;;;;5153124;27;20221;-52
2022/11/01 05:40:33;;;;;;;1055.03;272.70;;;13.00;99.90;;;;;;5153208;27;20276;-51
2022/11/01 05:43:01;;;;;;;561.03;184.20;;;13.00;99.90;;;;;;5146771;27;20293;-51
2022/11/01 05:45:30;;;;;;;778.73;216.63;;;13.00;99.90;;;;;;5130431;27;20326;-51
2022/11/01 05:48:03;;;;;;;760.60;330.50;;;13.00;99.90;;;;;;5131640;27;20237;-52
2022/11/01 05:50:32;;;;;;;1041.30;397.00;;;13.00;99.90;;;;;;5132566;27;20229;-53
2022/11/01 05:53:07;;;;;;;648.57;274.70;;;13.00;99.90;;;;;;5131337;27;20298;-51
2022/11/01 05:55:35;;;;;;;1102.73;335.57;;;13.00;99.90;;;;;;5125001;27;20221;-51
2022/11/01 05:58:04;;;;;;;457.77;160.07;;;13.00;99.90;;;;;;5134914;27;20224;-51
2022/11/01 06:00:33;;;;;;;915.63;343.00;;;13.00;99.90;;;;;;5128557;27;20287;-52
2022/11/01 06:03:03;;;;;;;914.60;323.87;;;13.10;99.90;;;;;;5120209;27;20683;-52
2022/11/01 06:05:33;;;;;;;1088.30;342.77;;;13.10;99.90;;;;;;5117226;27;20286;-51
2022/11/01 06:08:02;;;;;;;884.17;276.50;;;13.00;99.90;;;;;;5131936;27;20290;-52
2022/11/01 06:10:32;;;;;;;720.50;272.73;;;13.00;99.90;;;;;;5132992;27;20226;-52
2022/11/01 06:13:00;;;;;;;610.83;233.50;;;13.00;99.90;;;;;;5141436;27;20314;-50
2022/11/01 06:15:29;;;;;;;784.10;317.17;;;13.00;99.90;;;;;;5135109;27;20211;-52
2022/11/01 06:18:04;;;;;;;830.03;330.03;;;13.00;99.90;;;;;;5147692;27;20741;-52
2022/11/01 06:20:33;;;;;;;741.37;221.00;;;13.00;99.90;;;;;;5143421;27;20327;-53
2022/11/01 06:23:01;;;;;;;659.30;206.63;;;13.00;99.90;;;;;;5132920;27;20238;-51
2022/11/01 06:25:30;;;;;;;1069.57;397.67;;;13.00;99.90;;;;;;5124792;27;20864;-53
2022/11/01 06:27:58;;;;;;;1285.20;486.70;;;13.00;99.90;;;;;;5120039;27;20295;-52
2022/11/01 06:30:26;;;;;;;1035.67;301.83;;;13.00;99.90;;;;;;5131361;27;20230;-51
2022/11/01 06:32:59;;;;;;;849.10;322.20;;;13.00;99.90;;;;;;5137765;27;20212;-53
2022/11/01 06:35:30;;;;;;;787.57;282.83;;;13.00;99.90;;;;;;5127648;27;20207;-52
2022/11/01 06:38:02;;;;;;;751.50;259.87;;;13.00;99.90;;;;;;5116021;27;20219;-51
2022/11/01 06:40:30;;;;;;;1358.43;295.27;;;13.00;99.90;;;;;;5130499;27;20265;-51
2022/11/01 06:43:00;;;;;;;919.67;272.70;;;13.00;99.90;;;;;;5129816;27;20234;-52
2022/11/01 06:45:28;;;;;;;709.40;272.07;;;13.00;99.90;;;;;;5129213;27;20994;-51
2022/11/01 06:47:57;;;;;;;978.70;256.83;;;13.10;99.90;;;;;;5117640;27;20314;-51
2022/11/01 06:50:25;;;;;;;1048.67;288.20;;;13.10;99.90;;;;;;5128263;27;20346;-51
2022/11/01 06:52:57;;;;;;;889.43;284.60;;;13.10;99.90;;;;;;5129435;27;20230;-52
2022/11/01 06:55:26;;;;;;;730.90;286.93;;;13.10;99.90;;;;;;5128031;27;20286;-51
2022/11/01 06:57:55;;;;;;;1132.07;333.10;;;13.20;99.90;;;;;;5132452;27;20628;-53
2022/11/01 07:00:23;;;;;;;860.87;293.83;;;13.20;99.90;;;;;;5137397;27;20250;-51
2022/11/01 07:02:58;;;;;;;1104.07;322.60;;;13.20;99.90;;;;;;5128128;27;20230;-50
2022/11/01 07:05:26;;;;;;;755.70;266.30;;;13.20;99.90;;;;;;5129476;27;20209;-51
2022/11/01 07:08:01;;;;;;;1636.23;522.10;;;13.30;99.90;;;;;;5140070;27;20216;-52
2022/11/01 07:10:30;;;;;;;1068.97;366.37;;;13.30;99.90;;;;;;5129975;27;20223;-51
2022/11/01 07:12:59;;;;;;;1101.83;357.90;;;13.30;99.90;;;;;;5128519;27;20202;-52
2022/11/01 07:15:27;;;;;;;1488.27;431.00;;;13.30;99.90;;;;;;5120617;27;20207;-52
2022/11/01 07:17:56;;;;;;;636.67;203.63;;;13.30;99.90;;;;;;5124798;27;20318;-51
2022/11/01 07:20:24;;;;;;;1211.07;381.10;;;13.30;99.90;;;;;;5123659;27;20317;-51
2022/11/01 07:23:01;;;;;;;809.67;242.67;;;13.40;99.90;;;;;;5126365;27;20714;-52
2022/11/01 07:25:31;;;;;;;1759.03;504.87;;;13.40;99.90;;;;;;5131382;27;20199;-52
2022/11/01 07:28:00;;;;;;;1425.80;565.60;;;13.50;99.90;;;;;;5125698;27;20202;-51
2022/11/01 07:30:28;;;;;;;974.37;308.13;;;13.50;99.90;;;;;;5130407;27;20257;-51
2022/11/01 07:32:57;;;;;;;1301.97;468.07;;;13.60;99.90;;;;;;5131339;27;20210;-51
2022/11/01 07:35:26;;;;;;;1731.57;462.53;;;13.50;99.90;;;;;;5129197;27;20878;-52
2022/11/01 07:37:57;;;;;;;1544.20;454.73;;;13.60;99.90;;;;;;5123815;27;20227;-52
2022/11/01 07:40:28;;;;;;;1804.20;523.67;;;13.60;99.90;;;;;;5125330;27;20281;-51
2022/11/01 07:42:58;;;;;;;1282.57;446.73;;;13.60;99.90;;;;;;5132576;27;20620;-51
2022/11/01 07:45:28;;;;;;;1193.53;368.33;;;13.60;99.90;;;;;;5129352;27;20290;-51
2022/11/01 07:48:01;;;;;;;1458.17;440.03;;;13.70;99.90;;;;;;5115796;27;20206;-51
2022/11/01 07:50:30;;;;;;;1221.80;379.10;;;13.70;99.90;;;;;;5119482;27;20776;-51
2022/11/01 07:53:01;;;;;;;1908.17;604.60;;;13.70;99.90;;;;;;5126799;27;20268;-52
2022/11/01 07:55:31;;;;;;;1258.70;513.37;;;13.70;99.90;;;;;;5127806;27;20203;-52
2022/11/01 07:58:00;;;;;;;1381.80;426.67;;;13.70;99.90;;;;;;5129250;27;20699;-52
2022/11/01 08:00:29;;;;;;;1303.67;375.70;;;13.80;99.90;;;;;;5134148;27;20223;-53
2022/11/01 08:03:02;;;;;;;1136.17;341.83;;;13.80;99.90;;;;;;5128554;27;20699;-53
2022/11/01 08:05:31;;;;;;;1168.90;362.37;;;13.90;99.90;;;;;;5120088;27;20986;-51
2022/11/01 08:07:59;;;;;;;1663.00;478.93;;;14.00;99.90;;;;;;5128684;27;20725;-51
2022/11/01 08:10:28;;;;;;;1871.63;505.77;;;14.10;99.90;;;;;;5132995;27;20222;-50
2022/11/01 08:13:06;;;;;;;1827.97;638.60;;;14.10;99.90;;;;;;5131851;27;20263;-50
2022/11/01 08:15:34;;;;;;;1152.27;331.10;;;14.10;99.90;;;;;;5131755;27;20233;-51
2022/11/01 08:18:02;;;;;;;1256.00;353.43;;;14.10;99.90;;;;;;5129907;27;20269;-52
2022/11/01 08:20:31;;;;;;;1445.87;366.47;;;14.20;99.90;;;;;;5132620;27;20235;-51
2022/11/01 08:22:59;;;;;;;1485.90;382.70;;;14.20;99.90;;;;;;5136182;27;20302;-52
2022/11/01 08:25:28;;;;;;;1126.53;393.03;;;14.30;99.90;;;;;;5133951;27;20260;-51
2022/11/01 08:28:01;;;;;;;1426.97;412.87;;;14.40;99.90;;;;;;5130929;27;20233;-51
2022/11/01 08:30:31;;;;;;;1546.03;607.53;;;14.50;99.90;;;;;;5133861;27;20910;-51
2022/11/01 08:32:59;;;;;;;1225.97;310.23;;;14.50;99.90;;;;;;5134035;27;20282;-51
2022/11/01 08:35:28;;;;;;;1295.17;434.67;;;14.60;99.90;;;;;;5132125;27;20207;-51
2022/11/01 08:37:57;;;;;;;1715.17;556.70;;;14.60;99.90;;;;;;5120062;27;20230;-51
2022/11/01 08:40:27;;;;;;;1974.00;622.50;;;14.60;99.90;;;;;;5132905;27;20230;-52
2022/11/01 08:42:55;;;;;;;1999.90;586.73;;;14.70;99.90;;;;;;5131562;27;20207;-51
2022/11/01 08:45:23;;;;;;;1999.90;646.07;;;14.80;99.90;;;;;;5129468;27;20236;-51
2022/11/01 08:47:58;;;;;;;1532.20;553.33;;;14.80;99.90;;;;;;5122075;27;20294;-52
2022/11/01 08:50:26;;;;;;;1840.37;465.97;;;14.90;99.90;;;;;;5131379;27;20265;-52
2022/11/01 08:52:54;;;;;;;1892.93;577.27;;;15.00;99.90;;;;;;5131873;27;20264;-53
2022/11/01 08:55:23;;;;;;;1514.47;528.00;;;15.10;99.90;;;;;;5132524;27;20294;-52
2022/11/01 08:57:51;;;;;;;1999.90;684.78;;;15.20;99.90;;;;;;5120471;27;20690;-51
2022/11/01 09:00:20;;;;;;;1607.20;549.15;;;15.20;99.90;;;;;;5123166;27;20313;-51
2022/11/01 09:02:48;;;;;;;1482.55;510.00;;;15.10;99.90;;;;;;5131153;27;20218;-52
2022/11/01 09:05:18;;;;;;;1999.90;702.47;;;15.10;99.90;;;;;;5130884;27;20206;-52
2022/11/01 09:07:46;;;;;;;1806.97;559.10;;;15.00;99.90;;;;;;5125897;27;20242;-51
2022/11/01 09:10:15;;;;;;;1476.30;583.50;;;15.00;99.90;;;;;;5131005;27;20309;-52
2022/11/01 09:12:43;;;;;;;1887.25;530.25;;;15.00;99.90;;;;;;5131080;27;20760;-52
2022/11/01 09:15:11;;;;;;;1999.90;653.20;;;14.90;99.90;;;;;;5131813;27;20203;-51
2022/11/01 09:17:39;;;;;;;1999.90;591.73;;;14.90;99.90;;;;;;5129652;27;20238;-51
2022/11/01 09:20:08;;;;;;;1910.17;492.63;;;14.90;99.90;;;;;;5131064;27;20229;-52
2022/11/01 09:22:38;;;;;;;1769.25;470.95;;;14.90;99.90;;;;;;5134529;27;20746;-52
2022/11/01 09:25:07;;;;;;;1999.90;572.42;;;14.90;99.90;;;;;;5136007;27;20194;-51
2022/11/01 09:27:35;;;;;;;1686.28;594.53;;;14.90;99.90;;;;;;5124495;27;20303;-51
2022/11/01 09:30:04;;;;;;;1453.20;481.20;;;15.00;99.90;;;;;;5134892;27;20223;-51
2022/11/01 09:32:32;;;;;;;1591.95;523.88;;;15.00;99.90;;;;;;5132086;27;20333;-51
2022/11/01 09:35:00;;;;;;;1999.90;712.27;;;15.00;99.90;;;;;;5134154;27;20308;-52
2022/11/01 09:37:28;;;;;;;1999.90;597.33;;;15.10;99.90;;;;;;5125307;27;20200;-51
2022/11/01 09:39:58;;;;;;;1940.93;534.17;;;15.10;99.90;;;;;;5132359;27;20265;-51
2022/11/01 09:42:33;;;;;;;1990.75;566.40;;;15.20;99.90;;;;;;5132365;27;20213;-50
2022/11/01 09:45:05;;;;;;;1824.05;700.95;;;15.10;99.90;;;;;;5137384;27;20201;-51
2022/11/01 09:47:35;;;;;;;1999.90;676.50;;;15.20;99.90;;;;;;5123416;27;20250;-51
2022/11/01 09:50:13;;;;;;;1986.40;578.28;;;15.30;99.90;;;;;;5135534;27;21004;-51
2022/11/01 09:52:42;;;;;;;1145.88;362.73;;;15.30;99.90;;;;;;5131456;27;20213;-51
2022/11/01 09:55:16;;;;;;;1645.45;561.20;;;15.40;99.90;;;;;;5131027;27;20273;-53
2022/11/01 09:57:48;;;;;;;1191.80;366.15;;;15.50;99.90;;;;;;5131888;27;20713;-52
2022/11/01 10:00:19;;;;;;;1005.15;294.88;;;15.60;99.90;;;;;;5130822;27;20258;-51
2022/11/01 10:03:28;;;;;;;1999.90;816.17;;;15.70;99.90;;;;;;5130410;27;20814;-51
2022/11/01 10:06:06;;;;;;;1732.43;608.88;;;15.90;99.90;;;;;;5125749;27;20198;-52
2022/11/01 10:08:54;;;;;;;1580.50;521.00;;;16.00;99.90;;;;;;5123179;27;20251;-51
2022/11/01 10:11:54;;;;;;;1799.68;568.88;;;16.00;99.90;;;;;;5130356;27;20209;-52
2022/11/01 10:14:40;;;;;;;1445.88;525.85;;;15.90;99.90;;;;;;5113697;27;20301;-52
2022/11/01 10:17:13;;;;;;;1653.65;673.42;;;15.90;99.90;;;;;;5128081;27;20746;-51
2022/11/01 10:19:45;;;;;;;1269.43;474.52;;;16.00;99.90;;;;;;5130597;27;20707;-52
2022/11/01 10:22:17;;;;;;;1523.75;587.70;;;16.10;99.90;;;;;;5134687;27;20306;-52
2022/11/01 10:24:50;;;;;;;1549.88;526.50;;;16.20;99.90;;;;;;5134773;27;20194;-52
2022/11/01 10:27:28;;;;;;;1283.78;539.30;;;16.10;99.90;;;;;;5126473;27;20211;-52
2022/11/01 10:30:07;;;;;;;1413.75;542.13;;;15.90;99.90;;;;;;5124543;27;20211;-52
2022/11/01 10:32:40;;;;;;;1999.90;700.95;;;15.70;99.90;;;;;;5130734;27;20217;-52
2022/11/01 10:35:14;;;;;;;1999.90;713.83;;;15.60;99.90;;;;;;5127200;27;20201;-51
2022/11/01 10:37:49;;;;;;;1772.15;576.88;;;15.50;99.90;;;;;;5122498;27;20298;-52
2022/11/01 10:40:41;;;;;;;1175.47;461.60;;;15.40;99.90;;;;;;5132229;27;20223;-52
2022/11/01 10:43:15;;;;;;;1500.30;483.73;;;15.50;99.90;;;;;;5137521;27;20680;-52
2022/11/01 10:45:46;;;;;;;1999.90;565.70;;;15.40;99.90;;;;;;5144407;27;20198;-51
2022/11/01 10:48:25;;;;;;;1999.90;744.13;;;15.50;99.90;;;;;;5137605;27;20752;-52
2022/11/01 10:50:55;;;;;;;1943.65;570.25;;;15.60;99.90;;;;;;5132009;27;20245;-52
2022/11/01 10:53:26;;;;;;;1999.90;619.65;;;15.70;99.90;;;;;;5129643;27;20202;-52
2022/11/01 10:55:58;;;;;;;1999.90;712.05;;;15.80;99.90;;;;;;5129444;27;20203;-52
2022/11/01 10:58:34;;;;;;;1506.35;483.88;;;15.80;99.90;;;;;;5126344;27;20288;-52
2022/11/01 11:01:05;;;;;;;1999.90;729.13;;;15.80;99.90;;;;;;5129265;27;20269;-52
2022/11/01 11:03:34;;;;;;;1094.03;519.28;;;15.90;99.90;;;;;;5128859;27;20238;-51
2022/11/01 11:06:06;;;;;;;1719.70;701.42;;;15.90;99.90;;;;;;5129850;27;20210;-52
2022/11/01 11:08:38;;;;;;;1463.70;668.05;;;16.00;99.90;;;;;;5126419;27;20250;-53
2022/11/01 11:11:13;;;;;;;1533.10;767.70;;;15.90;99.90;;;;;;5129925;27;20199;-52
2022/11/01 11:13:46;;;;;;;1470.03;646.55;;;15.90;99.90;;;;;;5134303;27;20561;-52
2022/11/01 11:16:23;;;;;;;1337.10;583.35;;;15.90;99.90;;;;;;5129899;27;20316;-53
2022/11/01 11:19:01;;;;;;;1287.03;543.42;;;15.90;99.90;;;;;;5122694;27;20306;-51
2022/11/01 11:21:34;;;;;;;1557.38;691.13;;;16.00;99.90;;;;;;5126635;27;20279;-52
2022/11/01 11:24:03;;;;;;;1999.90;885.08;;;16.00;99.90;;;;;;5139811;27;20213;-52
2022/11/01 11:26:37;;;;;;;1821.13;868.80;;;16.10;99.90;;;;;;5136198;27;20233;-51
2022/11/01 11:29:07;;;;;;;1923.40;864.95;;;16.10;99.90;;;;;;5137922;27;20230;-52
2022/11/01 11:31:36;;;;;;;1849.13;875.80;;;16.10;99.90;;;;;;5132484;27;20245;-52
2022/11/01 11:34:19;;;;;;;1549.85;845.33;;;16.10;99.90;;;;;;5138311;27;20230;-53
2022/11/01 11:36:50;;;;;;;1284.53;742.40;;;16.00;99.90;;;;;;5128878;27;20233;-52
2022/11/01 11:39:25;;;;;;;1795.22;758.75;;;16.00;99.90;;;;;;5127920;27;20300;-51
2022/11/01 11:41:54;;;;;;;1581.32;762.92;;;16.10;99.90;;;;;;5125508;27;20242;-52
2022/11/01 11:44:44;;;;;;;1444.15;698.17;;;16.10;99.90;;;;;;5126811;27;20218;-52
2022/11/01 11:47:23;;;;;;;1233.93;611.25;;;16.10;99.90;;;;;;5122572;27;20282;-52
2022/11/01 11:49:52;;;;;;;1932.97;765.03;;;16.10;99.90;;;;;;5140182;27;20640;-52
2022/11/01 11:52:23;;;;;;;1408.82;848.38;;;16.10;99.90;;;;;;5138489;27;20202;-51
2022/11/01 11:54:55;;;;;;;1330.63;846.15;;;16.10;99.90;;;;;;5132900;27;20225;-52
2022/11/01 11:57:25;;;;;;;1308.20;669.33;;;16.10;99.90;;;;;;5127651;27;20199;-52
2022/11/01 11:59:58;;;;;;;1513.65;689.83;;;16.10;99.90;;;;;;5137974;27;20230;-50
2022/11/01 12:02:31;;;;;;;1626.57;686.38;;;16.10;99.90;;;;;;5134211;27;20290;-52
2022/11/01 12:05:02;;;;;;;1770.93;835.47;;;16.10;99.90;;;;;;5138366;27;20226;-52
2022/11/01 12:07:32;;;;;;;1730.10;789.70;;;16.10;99.90;;;;;;5120602;27;20231;-51
2022/11/01 12:10:02;;;;;;;1999.90;924.72;;;16.10;99.90;;;;;;5127428;27;20249;-52
2022/11/01 12:12:33;;;;;;;1437.40;662.80;;;16.10;99.90;;;;;;5127705;27;20284;-52
2022/11/01 12:15:23;;;;;;;1586.55;809.00;;;16.10;99.90;;;;;;5127938;27;20199;-52
2022/11/01 12:17:52;;;;;;;1572.97;760.95;;;16.10;99.90;;;;;;5123875;27;20230;-52
2022/11/01 12:20:22;;;;;;;1655.47;852.05;;;16.20;99.90;;;;;;5124180;28;20273;-51
2022/11/01 12:22:59;;;;;;;1802.80;851.67;;;16.10;99.90;;;;;;5128562;27;20289;-53
2022/11/01 12:25:27;;;;;;;1409.57;820.30;;;16.10;99.90;;;;;;5128595;27;20206;-51
2022/11/01 12:28:00;;;;;;;1980.10;931.85;;;16.10;99.90;;;;;;5128532;27;20211;-51
2022/11/01 12:30:33;;;;;;;1375.80;712.13;;;16.10;99.90;;;;;;5136009;27;20226;-52
2022/11/01 12:33:12;;;;;;;1890.45;906.90;;;16.10;99.90;;;;;;5134749;27;20233;-51
2022/11/01 12:35:42;;;;;;;1946.47;683.28;;;16.10;99.90;;;;;;5133839;27;20202;-51
2022/11/01 12:38:33;;;;;;;1999.90;979.22;;;16.10;99.90;;;;;;5122140;27;20231;-52